Scroll down
FLIGHT INFORMATION
Alaska Airlines

ASA3945

At Arrival Gate

PAJN
 PAFA
DATE: 2021-01-02
GATE: G1
GATE DEPARTURE: 18:02
TAKEOFF: 18:07
DATE: 2021-01-02
GATE:  -
LANDING: 19:43
GATE ARRIVAL: 19:49
FLIGHT DATA
Crew: 
Speed: 
453 kts
Altitude: 
38,010 ft
Stage Length: 
540.5 nm
Block Time: 
1.8 hrs
Flight Time: 
1.6 hrs
Fuel Used: 
8,687 lb
Cleared Route: PAJN SSR CFWBW IGSOM AYZOL ORT RDFLG PAFA
TRACK DATA
50,000 ft 1,000 kts
AIRCRAFT INFO AND CUMULATIVE STATS
Aircraft Type: 
B737BDSF
Registration: 
SELCAL: 
MSN/LN: 
30793 / 763
Operator: 
Total Flights: 
14
Total Block Time: 
25.1 hrs
Total Flight Time: 
22.1 hrs
Total Fuel Used: 
147,918 lb
DATALINK LOG | Newest first | Current as of: 2022-08-18 16:26:32
LABEL SEQUENCE CONTENT Dn/Up
QD260919:49 6.9▼ Dn
QC200419:43▼ Dn
2U0318PAFA 302053Z 00000KT 10SM SCT200 M21/M24 A2967 RMK AO2 SLP062 T12111244 53016▲ Up
2S3925PAFA▼ Dn
2U1855PAFA 301953Z 03003KT 10SM SCT200 M22/M24 A2965 RMK AO2 SLP057 T12171244▲ Up
2S5343PAFA▼ Dn
QB433418:07▼ Dn
QA383018:02 15.6▼ Dn
A35044CLEARED TO PAFA VIA JNU6 SSR J502 CFWBW Q902 AYZOL J502 RDFLG HRDNG2. SQUAWK 5412.▲ Up
B35035PAJN PAFA I ▼ Dn
Q04833[LINK ACK]▲ Up
Q04833[LINK TEST]▼ Dn


AIRCRAFT HISTORY
FLIGHT DATE FLIGHT NO. ORIGIN DESTINATION CLEARED ROUTE BLOCK TIME FLIGHT TIME FUEL USED PILOT
2021-09-10ASA1632PABE PAEN PABE DOLPE CAYON RAGES KOWOK AKN CACCA ICADI BREMI KOKOZ JIMON PADQ1.9 hrs1.7 hrs9,354 lbMike Dryden
2021-09-08ASA1651PAFA PABE PAFA FAI FAI MCG BET BET PABE1.7 hrs1.4 hrs8,170 lbMike Dryden
2021-09-06ASA3198PASC PAFA PASC SCC ARCON BIXER PIPET ARTIC CQR FAI PAFA1.3 hrs1.1 hrs6,482 lbMike Dryden
2021-01-17ASA9665CZ41 PASC PANC TED BGQ CAWIN SCC PASC1.7 hrs1.6 hrs8,481 lbMike Dryden
2021-01-10ASA9233PAFA CZ41 PAFA PUYVO PANC1.3 hrs1 hrs5,698 lbMike Dryden
2021-01-02ASA3945PAJN PAFA PAJN SSR CFWBW IGSOM AYZOL ORT RDFLG PAFA1.8 hrs1.6 hrs8,687 lbMike Dryden
2020-10-23ASA7004KSEA PAJN 2.6 hrs2.4 hrs12,227 lbRyan Syferd
2020-10-23ASA7900KLAS KSEA KLAS RBELL ROPPR MDDOG TARRK SHEAD DBIGE BIKKR KENNO OAL LOMIA LKV BLYTZ ESLEY BTG PTERA KRIEG HAWKZ LIINE PIKEZ COFAY BREVE NETTZ KWEST VASHN KSEA2.6 hrs2.3 hrs9,503 lbRyan Syferd
2020-10-17KPDX KLAS KPDX RIVRR COSUG HADIS CHISM PAWLI YERIN LIDAT BTY MYCAL FUZZY TRAGR IPUMY NIPZO SUNST KIMME CHIPZ POKRR PRINO CRESO RW26R2.5 hrs1.9 hrs40,743 lbRandall Smith
2020-10-15ASA1015PANC KPDX PANC NOEND LAIRE BKA PRYCE TOU KEIKO KPDX3.8 hrs3.6 hrs16,579 lbAaron Buchanan
2020-08-17ASA2201PAJN PANC PAJN ASORT YESKA TED PANC1.5 hrs1.4 hrs8,513 lbRoberto Stopnicki
2020-08-16ASA816PAWG PAJN PAWG SSR PAJN0.8 hrs0.6 hrs4,384 lbKevin Hall
2020-08-16ASA61PAJN PAWG PAJN CGLNB BARLO SSR LVD RGL20 RGL13 RGL10 RGL07 RGL04 RGL03 ZERUM RW280.9 hrs0.7 hrs4,318 lb-HIDDEN-
2020-08-08ASA7100PAKT PAJN PAKT WALDN CATLA DALLL KASAN DOOZI LVD STVNS STVNS RW260.9 hrs0.8 hrs4,780 lbRyan Syferd